Time;durP1;ratioP1;P1;durP2;ratioP2;P2;SDS_P1;SDS_P2;PMS_P1;PMS_P2;Temp;Humidity;BMP_temperature;BMP_pressure;BME280_temperature;BME280_humidity;BME280_pressure;Samples;Min_cycle;Max_cycle;Signal;HPM_P1;HPM_P2
2022/06/30 00:02:18;;;;;;;4.90;4.38;;;;;;;21.24;69.49;100916.13;4996343;28;102523;-47
2022/06/30 00:04:44;;;;;;;4.57;4.05;;;;;;;21.23;69.43;100905.38;4994799;28;103922;-47
2022/06/30 00:07:13;;;;;;;5.53;4.25;;;;;;;21.23;69.52;100908.97;4996061;28;102312;-47
2022/06/30 00:09:40;;;;;;;6.18;4.70;;;;;;;21.23;69.31;100902.63;4994780;28;102260;-46
2022/06/30 00:12:07;;;;;;;4.28;3.63;;;;;;;21.23;69.60;100908.16;4997063;28;102743;-47
2022/06/30 00:14:34;;;;;;;5.05;4.28;;;;;;;21.22;69.66;100910.13;4995020;28;103931;-47
2022/06/30 00:17:00;;;;;;;4.97;4.32;;;;;;;21.21;69.43;100905.75;4995205;28;102369;-49
2022/06/30 00:19:27;;;;;;;4.65;4.25;;;;;;;21.22;69.61;100901.81;4989329;28;102228;-48
2022/06/30 00:21:53;;;;;;;5.53;4.60;;;;;;;21.22;69.53;100896.28;4981564;28;102400;-47
2022/06/30 00:24:21;;;;;;;4.57;4.10;;;;;;;21.21;69.58;100905.75;4974713;28;103929;-47
2022/06/30 00:26:47;;;;;;;5.95;4.70;;;;;;;21.21;69.61;100899.41;4985757;28;104371;-47
2022/06/30 00:29:14;;;;;;;7.05;5.05;;;;;;;21.21;69.68;100900.22;4992900;28;105984;-48
2022/06/30 00:31:40;;;;;;;5.57;4.00;;;;;;;21.21;69.52;100897.44;4995977;28;102509;-46
2022/06/30 00:34:07;;;;;;;4.80;4.18;;;;;;;21.21;69.59;100893.88;4994114;28;103770;-47
2022/06/30 00:36:34;;;;;;;5.28;4.53;;;;;;;21.20;69.61;100893.03;4992283;28;102179;-50
2022/06/30 00:39:00;;;;;;;4.97;4.47;;;;;;;21.20;69.63;100898.56;4974708;28;102174;-46
2022/06/30 00:41:29;;;;;;;5.93;4.15;;;;;;;21.21;69.68;100899.41;4990595;28;102125;-46
2022/06/30 00:43:56;;;;;;;4.32;3.92;;;;;;;21.21;69.72;100883.59;4993014;28;103903;-46
2022/06/30 00:46:23;;;;;;;5.70;4.43;;;;;;;21.19;69.67;100891.41;4995596;28;101982;-47
2022/06/30 00:48:49;;;;;;;6.72;4.18;;;;;;;21.20;69.56;100898.56;4994795;28;102044;-47
2022/06/30 00:51:16;;;;;;;6.18;4.40;;;;;;;21.21;69.71;100883.59;4994592;28;102142;-47
2022/06/30 00:53:43;;;;;;;6.57;4.40;;;;;;;21.20;69.66;100887.50;4974928;28;103922;-46
2022/06/30 00:56:10;;;;;;;4.18;3.78;;;;;;;21.20;69.67;100893.03;4994126;28;102254;-46
2022/06/30 00:58:40;;;;;;;5.70;3.95;;;;;;;21.20;69.74;100898.56;4993549;28;102247;-46
2022/06/30 01:01:07;;;;;;;4.45;4.05;;;;;;;21.20;69.81;100906.06;4994054;28;102296;-48
2022/06/30 01:03:34;;;;;;;5.25;4.55;;;;;;;21.20;69.54;100904.09;4994570;28;104228;-49
2022/06/30 01:06:02;;;;;;;5.18;4.20;;;;;;;21.20;69.63;100904.09;4994344;28;102315;-46
2022/06/30 01:08:32;;;;;;;5.38;3.78;;;;;;;21.19;69.71;100888.66;4994818;28;102517;-46
2022/06/30 01:13:57;;;;;;;6.30;4.22;;;;;;;21.19;69.67;100885.88;4938648;28;107769;-48
2022/06/30 01:16:27;;;;;;;5.53;4.32;;;;;;;21.19;69.76;100888.66;4983198;28;102529;-47
2022/06/30 01:18:53;;;;;;;4.90;3.75;;;;;;;21.19;69.69;100885.88;4974944;28;102028;-47
2022/06/30 01:21:20;;;;;;;4.55;4.15;;;;;;;21.19;69.80;100885.06;4992323;28;102185;-46
2022/06/30 01:23:48;;;;;;;5.05;4.45;;;;;;;21.20;69.76;100886.69;4994102;28;103986;-46
2022/06/30 01:26:14;;;;;;;5.10;4.20;;;;;;;21.20;69.68;100886.69;4994741;28;102279;-46
2022/06/30 01:28:41;;;;;;;6.82;4.50;;;;;;;21.20;69.76;100887.50;4994088;28;102148;-46
2022/06/30 01:31:07;;;;;;;4.40;4.00;;;;;;;21.19;69.72;100880.34;4995902;28;102166;-47
2022/06/30 01:33:35;;;;;;;6.60;4.90;;;;;;;21.18;69.75;100884.28;4994609;28;104121;-49
2022/06/30 01:36:02;;;;;;;4.88;4.30;;;;;;;21.19;69.78;100890.59;4992683;28;102746;-46
2022/06/30 01:38:29;;;;;;;5.40;4.65;;;;;;;21.17;69.89;100882.66;4993338;28;102168;-46
2022/06/30 01:40:57;;;;;;;4.75;4.25;;;;;;;21.18;69.91;100877.94;4995019;28;102297;-47
2022/06/30 01:43:24;;;;;;;4.80;4.30;;;;;;;21.18;69.89;100887.03;4994061;28;103833;-47
2022/06/30 01:45:51;;;;;;;6.55;4.35;;;;;;;21.18;69.99;100881.50;4994254;28;102517;-49
2022/06/30 01:48:17;;;;;;;5.22;4.65;;;;;;;21.18;69.78;100878.75;4994764;28;102470;-47
2022/06/30 01:50:44;;;;;;;8.15;4.82;;;;;;;21.18;70.06;100878.75;4993323;28;102362;-47
2022/06/30 01:53:11;;;;;;;5.57;4.85;;;;;;;21.18;69.91;100887.03;4994298;28;103946;-46
2022/06/30 01:55:38;;;;;;;5.13;4.72;;;;;;;21.18;69.89;100889.00;4997712;28;102314;-47
2022/06/30 01:58:06;;;;;;;5.53;4.50;;;;;;;21.17;69.84;100890.97;4996647;28;102310;-47
2022/06/30 02:00:34;;;;;;;6.95;4.60;;;;;;;21.17;69.89;100890.97;4998630;28;102150;-46
2022/06/30 02:03:01;;;;;;;4.70;4.20;;;;;;;21.17;69.87;100895.66;4997189;28;104061;-47
2022/06/30 02:05:27;;;;;;;6.55;4.70;;;;;;;21.17;70.00;100899.25;4997669;28;102381;-46
2022/06/30 02:07:54;;;;;;;5.45;4.05;;;;;;;21.17;70.04;100896.50;4997262;28;102737;-46
2022/06/30 02:10:22;;;;;;;5.18;4.68;;;;;;;21.16;70.02;100889.31;4997417;28;102168;-48
2022/06/30 02:12:49;;;;;;;5.03;4.47;;;;;;;21.16;69.97;100894.84;4984946;28;103960;-48
2022/06/30 02:15:19;;;;;;;5.80;4.32;;;;;;;21.15;69.96;100895.22;4977505;28;102193;-48
2022/06/30 02:17:47;;;;;;;4.72;4.32;;;;;;;21.16;70.01;100903.16;4977537;28;102305;-48
2022/06/30 02:20:18;;;;;;;5.28;4.55;;;;;;;21.16;70.13;100908.69;4977989;28;102606;-48
2022/06/30 02:22:44;;;;;;;4.88;4.40;;;;;;;21.16;70.03;100913.44;4989032;28;104058;-47
2022/06/30 02:25:11;;;;;;;6.85;5.05;;;;;;;21.16;70.00;100922.53;4996091;28;102009;-47
2022/06/30 02:27:37;;;;;;;5.25;4.57;;;;;;;21.15;69.94;100909.03;4997843;28;102358;-47
2022/06/30 02:30:06;;;;;;;5.15;4.32;;;;;;;21.16;69.98;100908.69;4996905;28;102181;-47
2022/06/30 02:32:34;;;;;;;5.07;4.57;;;;;;;21.15;69.99;100904.31;4996364;28;104039;-49
2022/06/30 02:35:01;;;;;;;4.60;4.20;;;;;;;21.16;69.95;100914.22;4995691;28;102192;-49
2022/06/30 02:37:28;;;;;;;5.07;4.57;;;;;;;21.16;69.95;100914.22;4995416;28;102567;-49
2022/06/30 02:39:55;;;;;;;7.95;4.72;;;;;;;21.16;69.87;100925.31;4997712;28;102057;-47
2022/06/30 02:42:22;;;;;;;5.07;4.57;;;;;;;21.17;69.82;100926.09;4996278;28;104004;-48
2022/06/30 02:44:49;;;;;;;5.47;4.97;;;;;;;21.16;70.05;100919.75;4995285;28;106007;-49
2022/06/30 02:47:15;;;;;;;4.90;4.40;;;;;;;21.15;70.02;100915.38;4996098;28;102304;-46
2022/06/30 02:49:43;;;;;;;7.10;4.40;;;;;;;21.15;70.03;100920.91;4997506;28;102538;-49
2022/06/30 02:52:10;;;;;;;4.90;4.47;;;;;;;21.16;69.94;100919.75;4994440;28;104115;-49
2022/06/30 02:54:38;;;;;;;8.00;5.00;;;;;;;21.16;70.11;100916.19;4991548;28;102208;-48
2022/06/30 02:57:05;;;;;;;6.55;4.80;;;;;;;21.16;70.11;100917.00;4993483;28;101964;-50
2022/06/30 02:59:33;;;;;;;5.97;4.72;;;;;;;21.16;69.97;100919.75;4996808;28;102195;-46
2022/06/30 03:02:00;;;;;;;5.28;4.50;;;;;;;21.17;69.98;100915.88;4995362;28;104076;-46
2022/06/30 03:04:26;;;;;;;5.50;4.53;;;;;;;21.17;70.05;100923.34;4995564;28;102013;-49
2022/06/30 03:06:55;;;;;;;4.80;4.30;;;;;;;21.17;70.17;100926.09;4996665;28;102315;-47
2022/06/30 03:09:23;;;;;;;5.13;4.45;;;;;;;21.17;70.18;100923.34;4996990;28;102621;-46
2022/06/30 03:11:49;;;;;;;5.30;4.78;;;;;;;21.17;69.93;100920.56;4995807;28;103933;-46
2022/06/30 03:14:16;;;;;;;5.10;4.60;;;;;;;21.18;70.12;100927.75;4996801;28;102301;-46
2022/06/30 03:16:43;;;;;;;6.10;4.43;;;;;;;21.18;70.20;100923.00;4995100;28;102186;-47
2022/06/30 03:19:11;;;;;;;4.82;4.32;;;;;;;21.18;70.18;100939.63;4997270;28;102089;-46
2022/06/30 03:21:39;;;;;;;6.72;4.78;;;;;;;21.19;70.15;100926.59;4994033;28;103808;-48
2022/06/30 03:24:07;;;;;;;5.10;4.60;;;;;;;21.19;70.10;100923.81;4996222;28;102050;-48
2022/06/30 03:26:36;;;;;;;;;;;;;;;21.19;70.10;100916.31;4996337;28;102306;-48
2022/06/30 03:29:02;;;;;;;5.80;4.53;;;;;;;21.20;70.33;100926.25;4983143;28;102590;-47
2022/06/30 03:31:29;;;;;;;4.82;4.18;;;;;;;21.19;70.26;100924.63;4996057;28;104115;-47
2022/06/30 03:33:56;;;;;;;5.07;4.45;;;;;;;21.21;70.22;100921.53;4996275;28;101908;-46
2022/06/30 03:36:23;;;;;;;4.80;4.35;;;;;;;21.20;70.30;100931.78;4996030;28;101914;-47
2022/06/30 03:38:49;;;;;;;4.90;4.50;;;;;;;21.21;70.12;100925.13;4996995;28;102299;-47
2022/06/30 03:41:17;;;;;;;5.85;4.38;;;;;;;21.22;70.13;100931.44;4994515;28;104072;-46
2022/06/30 03:43:44;;;;;;;4.87;3.97;;;;;;;21.22;70.23;100931.44;4995819;28;102385;-47
2022/06/30 03:46:10;;;;;;;4.90;4.40;;;;;;;21.22;70.24;100935.03;4995625;28;102206;-46
2022/06/30 03:48:41;;;;;;;7.00;4.20;;;;;;;21.23;70.09;100939.41;4997290;28;102113;-49
2022/06/30 03:51:08;;;;;;;5.78;4.40;;;;;;;21.23;70.24;100933.88;4994917;28;103862;-47
2022/06/30 03:53:35;;;;;;;6.53;4.47;;;;;;;21.24;70.20;100942.97;4996556;28;102261;-48
2022/06/30 03:56:02;;;;;;;4.90;4.50;;;;;;;21.24;70.21;100937.44;4994722;28;102485;-50
2022/06/30 03:58:30;;;;;;;4.88;4.20;;;;;;;21.24;70.25;100943.81;4997108;28;102588;-48
2022/06/30 04:00:57;;;;;;;4.85;4.05;;;;;;;21.24;70.16;100943.81;4994165;28;104095;-47
2022/06/30 04:03:24;;;;;;;5.03;4.20;;;;;;;21.25;70.18;100950.97;4995474;28;102738;-47
2022/06/30 04:05:50;;;;;;;4.35;3.95;;;;;;;21.27;70.23;100954.19;4992945;28;102259;-46
2022/06/30 04:08:17;;;;;;;4.72;4.20;;;;;;;21.27;70.23;100954.19;4997155;28;102484;-47
2022/06/30 04:10:43;;;;;;;5.05;4.55;;;;;;;21.27;70.13;100959.72;4995116;28;104139;-49
2022/06/30 04:13:12;;;;;;;5.43;4.93;;;;;;;21.25;70.19;100962.03;4996699;28;102343;-46
2022/06/30 04:15:40;;;;;;;6.47;4.60;;;;;;;21.27;70.16;100958.91;4994026;28;102058;-47
2022/06/30 04:18:07;;;;;;;5.10;4.60;;;;;;;21.28;70.07;100953.06;4994821;28;102520;-47
2022/06/30 04:20:33;;;;;;;4.57;4.13;;;;;;;21.26;70.28;100947.03;4994330;28;104188;-46
2022/06/30 04:22:59;;;;;;;5.05;4.20;;;;;;;21.26;70.38;100947.03;4995312;28;101885;-47
2022/06/30 04:25:26;;;;;;;6.75;4.85;;;;;;;21.26;70.31;100952.56;4994520;28;102173;-46
2022/06/30 04:27:56;;;;;;;5.38;4.90;;;;;;;21.25;70.31;100950.97;4996609;28;102237;-48
2022/06/30 04:33:09;;;;;;;5.10;4.60;;;;;;;21.27;70.27;100940.34;4993072;28;102172;-47
2022/06/30 04:35:35;;;;;;;5.25;4.85;;;;;;;21.26;70.16;100941.50;4992876;28;102403;-47
2022/06/30 04:38:04;;;;;;;5.20;4.75;;;;;;;21.28;70.28;100939.22;4995690;28;102639;-46
2022/06/30 04:43:16;;;;;;;5.75;5.25;;;;;;;21.27;70.44;100940.34;4995659;28;102236;-47
2022/06/30 04:45:44;;;;;;;6.40;5.50;;;;;;;21.29;70.27;100943.59;4995133;28;101917;-47
2022/06/30 04:48:12;;;;;;;5.97;5.38;;;;;;;21.30;70.15;100939.69;4996097;28;102364;-46
2022/06/30 04:50:39;;;;;;;5.68;5.13;;;;;;;21.31;70.17;100944.09;4993609;28;103893;-46
2022/06/30 04:53:05;;;;;;;5.68;5.15;;;;;;;21.32;70.14;100942.13;4993871;28;102542;-47
2022/06/30 04:55:32;;;;;;;6.38;5.78;;;;;;;21.32;70.31;100950.44;4994834;28;102804;-46
2022/06/30 04:57:59;;;;;;;5.75;5.22;;;;;;;21.32;70.23;100944.88;4995058;28;102703;-50
2022/06/30 05:00:25;;;;;;;6.38;5.78;;;;;;;21.33;70.10;100952.03;4993154;28;103949;-47
2022/06/30 05:02:53;;;;;;;6.03;5.53;;;;;;;21.33;70.25;100944.56;4995562;28;102314;-47
2022/06/30 05:05:21;;;;;;;6.47;5.88;;;;;;;21.35;70.02;100947.81;4993442;28;102398;-49
2022/06/30 05:07:48;;;;;;;8.77;5.63;;;;;;;21.37;70.33;100947.47;4996184;28;102526;-49
2022/06/30 05:10:15;;;;;;;6.97;5.50;;;;;;;21.36;70.16;100948.63;4994112;28;104526;-49
2022/06/30 05:12:41;;;;;;;5.53;5.05;;;;;;;21.39;70.08;100949.91;4994107;28;102276;-50
2022/06/30 05:15:09;;;;;;;7.88;6.55;;;;;;;21.40;70.06;100948.75;4993377;28;102247;-46
2022/06/30 05:17:36;;;;;;;6.82;5.40;;;;;;;21.40;70.06;100940.47;4995519;28;102301;-46
2022/06/30 05:20:03;;;;;;;6.10;5.60;;;;;;;21.42;70.09;100949.22;4994160;28;104103;-47
2022/06/30 05:22:31;;;;;;;6.93;6.07;;;;;;;21.42;70.05;100950.06;4994159;28;102060;-46
2022/06/30 05:27:45;;;;;;;7.22;5.78;;;;;;;21.41;70.01;100953.94;4996120;28;102398;-47
2022/06/30 05:30:12;;;;;;;6.22;5.72;;;;;;;21.42;70.10;100949.22;4997491;28;104182;-46
2022/06/30 05:32:38;;;;;;;6.72;6.13;;;;;;;21.41;70.09;100948.41;4998833;28;102146;-46
2022/06/30 05:35:06;;;;;;;6.57;5.93;;;;;;;21.43;70.09;100945.31;4996819;28;102165;-46
2022/06/30 05:37:34;;;;;;;6.25;5.72;;;;;;;21.45;69.99;100948.53;4999484;28;102222;-46
2022/06/30 05:40:01;;;;;;;6.80;6.17;;;;;;;21.46;69.89;100934.38;4995478;28;103885;-47
2022/06/30 05:42:29;;;;;;;8.32;6.40;;;;;;;21.48;69.85;100936.78;4996342;28;102337;-47
2022/06/30 05:44:55;;;;;;;6.97;6.28;;;;;;;21.51;69.89;100931.38;4995176;28;102118;-46
2022/06/30 05:47:22;;;;;;;7.43;5.97;;;;;;;21.54;69.57;100935.44;4997595;28;102374;-47
2022/06/30 05:49:49;;;;;;;7.88;6.35;;;;;;;21.56;69.67;100933.13;4994737;28;103790;-47
2022/06/30 05:52:15;;;;;;;7.03;6.38;;;;;;;21.58;69.62;100937.19;4997395;28;102433;-47
2022/06/30 05:54:43;;;;;;;7.15;6.45;;;;;;;21.64;69.43;100934.19;4994832;28;102314;-47
2022/06/30 05:57:10;;;;;;;7.27;6.40;;;;;;;21.64;69.51;100932.25;4990427;28;102487;-47
2022/06/30 05:59:37;;;;;;;6.95;6.03;;;;;;;21.65;69.52;100931.09;4994608;28;103908;-47
2022/06/30 06:02:04;;;;;;;6.55;5.95;;;;;;;21.66;69.60;100929.94;4994817;28;102082;-47
2022/06/30 06:04:31;;;;;;;8.85;6.43;;;;;;;21.67;69.48;100930.75;4996977;28;101831;-47
2022/06/30 06:06:57;;;;;;;11.02;6.70;;;;;;;21.69;69.41;100934.78;4995811;28;102608;-46
2022/06/30 06:09:24;;;;;;;7.35;6.65;;;;;;;21.70;69.37;100928.09;4996278;28;103879;-47
2022/06/30 06:11:53;;;;;;;7.57;6.70;;;;;;;21.70;69.37;100922.56;4996409;28;102371;-47
2022/06/30 06:14:20;;;;;;;7.30;6.50;;;;;;;21.73;69.42;100921.88;4991814;28;102268;-47
2022/06/30 06:16:46;;;;;;;7.25;6.57;;;;;;;21.75;69.25;100922.34;4994170;28;103617;-49
2022/06/30 06:19:13;;;;;;;7.15;6.13;;;;;;;21.75;69.38;100919.59;4996758;28;103941;-49
2022/06/30 06:21:40;;;;;;;7.85;7.03;;;;;;;21.78;69.20;100918.91;4994477;28;104788;-47
2022/06/30 06:24:07;;;;;;;7.15;6.38;;;;;;;21.77;69.22;100917.25;4995067;28;102031;-46
2022/06/30 06:26:33;;;;;;;7.50;6.80;;;;;;;21.78;69.23;100912.53;4994765;28;102179;-48
2022/06/30 06:29:08;;;;;;;7.43;6.53;;;;;;;21.79;69.14;100920.50;4991855;28;104020;-46
2022/06/30 06:31:37;;;;;;;6.63;5.93;;;;;;;21.80;69.08;100911.03;4997291;28;102174;-46
2022/06/30 06:34:04;;;;;;;8.90;6.68;;;;;;;21.79;69.22;100903.91;4995610;28;102530;-46
2022/06/30 06:36:32;;;;;;;6.63;6.03;;;;;;;21.82;69.09;100913.50;4997466;28;102261;-46
2022/06/30 06:38:59;;;;;;;7.18;6.18;;;;;;;21.82;69.04;100914.28;4995506;28;104648;-47
2022/06/30 06:41:26;;;;;;;7.28;5.90;;;;;;;21.83;69.06;100899.28;4996423;28;101877;-48
2022/06/30 06:43:53;;;;;;;9.30;6.75;;;;;;;21.84;68.90;100906.44;4997269;28;102218;-47
2022/06/30 06:46:26;;;;;;;6.47;5.88;;;;;;;21.82;69.21;100903.22;4997841;28;102176;-47
2022/06/30 06:48:54;;;;;;;6.90;6.30;;;;;;;21.84;69.06;100903.66;4995485;28;104064;-49
2022/06/30 06:51:21;;;;;;;7.25;6.28;;;;;;;21.84;69.07;100900.91;4991847;28;102323;-47
2022/06/30 06:53:47;;;;;;;7.10;6.40;;;;;;;21.83;69.16;100915.91;4990870;28;102561;-47
2022/06/30 06:56:14;;;;;;;6.88;6.28;;;;;;;21.84;68.90;100909.19;4997360;28;102299;-46
2022/06/30 06:58:41;;;;;;;6.82;6.13;;;;;;;21.84;68.96;100905.63;4995766;28;103945;-47
2022/06/30 07:01:07;;;;;;;7.07;6.47;;;;;;;21.86;69.00;100899.75;4993663;28;102646;-47
2022/06/30 07:03:36;;;;;;;7.20;6.30;;;;;;;21.86;69.04;100902.53;4996145;28;102576;-46
2022/06/30 07:06:02;;;;;;;7.82;7.05;;;;;;;21.86;69.03;100897.00;4996774;28;102278;-50
2022/06/30 07:08:29;;;;;;;6.80;6.10;;;;;;;21.86;69.06;100899.75;4995529;28;103847;-47
2022/06/30 07:10:57;;;;;;;7.20;6.50;;;;;;;21.87;69.04;100901.38;4996605;28;102018;-47
2022/06/30 07:13:24;;;;;;;7.70;6.80;;;;;;;21.89;68.97;100901.81;4996275;28;102402;-46
2022/06/30 07:15:50;;;;;;;6.90;6.22;;;;;;;21.89;69.03;100904.59;4997408;28;102250;-48
2022/06/30 07:18:17;;;;;;;6.82;6.22;;;;;;;21.90;68.85;100898.72;4995759;28;104004;-47
2022/06/30 07:20:45;;;;;;;7.38;6.47;;;;;;;21.92;68.68;100901.94;4995264;28;102528;-47
2022/06/30 07:23:12;;;;;;;6.20;5.70;;;;;;;21.92;68.79;100903.91;4995827;28;102016;-49
2022/06/30 07:25:39;;;;;;;6.82;6.13;;;;;;;21.93;68.77;100908.31;4995992;28;102475;-47
2022/06/30 07:28:06;;;;;;;6.22;5.72;;;;;;;21.96;68.84;100910.38;4992946;28;104180;-47
2022/06/30 07:30:33;;;;;;;8.27;6.55;;;;;;;21.94;68.85;100910.72;4990203;28;102178;-46
2022/06/30 07:33:00;;;;;;;6.88;6.18;;;;;;;21.96;68.74;100910.38;4994294;28;102199;-46
2022/06/30 07:35:27;;;;;;;6.80;6.10;;;;;;;21.96;68.86;100924.22;4991668;28;102514;-46
2022/06/30 07:37:55;;;;;;;9.75;7.25;;;;;;;21.96;68.77;100924.22;4993660;28;103868;-49
2022/06/30 07:40:21;;;;;;;6.77;6.10;;;;;;;21.94;68.84;100921.00;4993176;28;102123;-47
2022/06/30 07:42:48;;;;;;;7.00;6.40;;;;;;;21.92;68.79;100934.38;4994398;28;102308;-48
2022/06/30 07:45:15;;;;;;;6.40;5.80;;;;;;;21.90;68.92;100936.72;4997081;28;102164;-50
2022/06/30 07:47:46;;;;;;;6.75;6.15;;;;;;;21.88;68.89;100939.00;4994108;28;103990;-49
2022/06/30 07:50:13;;;;;;;6.60;6.00;;;;;;;21.88;68.99;100944.53;4990045;28;102330;-49
2022/06/30 07:52:39;;;;;;;7.15;6.55;;;;;;;21.85;69.00;100951.56;4987967;28;102441;-46
2022/06/30 07:55:08;;;;;;;7.18;6.55;;;;;;;21.85;69.09;100968.19;4996432;28;102142;-47
2022/06/30 07:57:36;;;;;;;7.47;6.55;;;;;;;21.87;68.97;100976.97;4991521;28;103959;-47
2022/06/30 08:00:04;;;;;;;7.35;6.68;;;;;;;21.92;69.06;100982.31;4996181;28;101943;-46
2022/06/30 08:02:31;;;;;;;8.20;7.13;;;;;;;21.95;69.03;100994.66;4994083;28;102343;-47
2022/06/30 08:04:57;;;;;;;8.10;7.30;;;;;;;21.99;68.88;101006.69;4996407;28;102221;-46
2022/06/30 08:07:24;;;;;;;9.13;8.20;;;;;;;22.00;69.02;101011.09;4995072;28;103792;-47
2022/06/30 08:09:50;;;;;;;8.60;7.55;;;;;;;22.02;68.79;101011.53;4995065;28;102294;-49
2022/06/30 08:12:19;;;;;;;9.63;7.80;;;;;;;22.04;68.88;101009.25;4995586;28;102054;-46
2022/06/30 08:14:46;;;;;;;;;;;;;;;22.00;68.85;101019.41;4995159;28;102546;-46
2022/06/30 08:17:13;;;;;;;9.60;8.40;;;;;;;21.99;69.09;101028.84;4994186;28;103816;-47
2022/06/30 08:19:41;;;;;;;15.40;8.38;;;;;;;21.93;69.01;101024.69;4993245;28;102627;-49
2022/06/30 08:22:08;;;;;;;9.18;8.00;;;;;;;21.92;69.02;101018.31;4993105;28;102105;-49
2022/06/30 08:24:34;;;;;;;9.38;8.43;;;;;;;21.92;69.17;101017.50;4996152;28;102463;-47
2022/06/30 08:27:02;;;;;;;9.98;8.55;;;;;;;21.97;69.10;101020.91;4994364;28;103928;-48
2022/06/30 08:29:34;;;;;;;10.83;8.93;;;;;;;22.06;69.22;101027.16;4994560;28;101988;-46
2022/06/30 08:32:01;;;;;;;10.63;9.05;;;;;;;22.05;68.81;101028.31;4992373;28;102202;-46
2022/06/30 08:34:28;;;;;;;9.70;8.82;;;;;;;22.07;68.83;101027.97;4995504;28;102159;-46
2022/06/30 08:36:55;;;;;;;12.20;10.50;;;;;;;22.17;68.25;101035.88;4992982;28;104234;-46
2022/06/30 08:42:09;;;;;;;11.02;9.18;;;;;;;22.26;68.23;101036.59;4993624;28;101995;-46
2022/06/30 08:44:41;;;;;;;14.85;9.38;;;;;;;22.38;67.78;101048.88;4995793;28;102149;-47
2022/06/30 08:47:08;;;;;;;11.40;9.15;;;;;;;22.27;68.20;101041.00;4993532;28;104386;-46
2022/06/30 08:49:36;;;;;;;13.13;8.82;;;;;;;22.27;68.05;101052.06;4993619;28;102292;-48
2022/06/30 08:52:05;;;;;;;10.13;9.10;;;;;;;22.29;67.77;101052.56;4992967;28;102885;-46
2022/06/30 08:54:33;;;;;;;;;;;;;;;22.29;67.50;101049.78;4995189;28;102344;-47
2022/06/30 08:57:01;;;;;;;;;;;;;;;22.30;67.79;101050.59;4994256;28;103906;-48
2022/06/30 08:59:28;;;;;;;10.10;8.97;;;;;;;22.24;67.84;101057.50;4995244;28;102062;-49
2022/06/30 09:01:56;;;;;;;12.48;8.88;;;;;;;22.22;68.04;101054.28;4991502;28;102410;-47
2022/06/30 09:04:23;;;;;;;10.68;9.40;;;;;;;22.22;67.89;101060.63;4995257;28;102478;-47
2022/06/30 09:06:49;;;;;;;9.80;8.55;;;;;;;22.26;67.64;101058.78;4992298;28;103889;-48
2022/06/30 09:09:17;;;;;;;12.07;8.73;;;;;;;22.20;67.77;101035.19;4993396;28;102389;-47
2022/06/30 09:11:51;;;;;;;9.55;7.95;;;;;;;22.15;68.16;101040.97;4989927;28;102254;-49
2022/06/30 09:14:32;;;;;;;9.07;8.18;;;;;;;22.12;68.13;101043.56;4984871;28;102394;-48
2022/06/30 09:17:00;;;;;;;8.65;7.82;;;;;;;22.14;67.98;101044.03;4993046;28;104049;-49
2022/06/30 09:19:26;;;;;;;8.15;7.35;;;;;;;22.10;68.54;101029.25;4975074;28;102110;-52
2022/06/30 09:22:07;;;;;;;8.75;7.82;;;;;;;22.05;68.70;101033.84;4991999;28;102632;-47
2022/06/30 09:24:35;;;;;;;8.27;7.43;;;;;;;22.08;68.14;101037.91;4994190;28;102004;-47
2022/06/30 09:27:16;;;;;;;8.32;7.63;;;;;;;22.09;67.93;101047.84;4991414;28;104076;-46
2022/06/30 09:29:52;;;;;;;9.27;8.35;;;;;;;22.10;68.02;101041.13;4993013;28;102510;-47
2022/06/30 09:32:20;;;;;;;8.80;7.93;;;;;;;22.06;68.52;101045.75;4991132;28;102178;-48
2022/06/30 09:34:48;;;;;;;8.00;7.30;;;;;;;22.05;68.32;101071.84;4994416;28;102291;-46
2022/06/30 09:37:17;;;;;;;9.18;7.43;;;;;;;22.07;68.08;101081.44;4994104;28;104093;-47
2022/06/30 09:39:46;;;;;;;8.32;7.40;;;;;;;22.13;67.61;101089.53;4994621;28;102357;-47
2022/06/30 09:42:13;;;;;;;9.43;8.13;;;;;;;22.13;67.70;101090.34;4992830;28;102093;-46
2022/06/30 09:44:49;;;;;;;11.17;8.13;;;;;;;22.12;67.77;101083.19;4994350;28;102218;-48
2022/06/30 09:47:17;;;;;;;8.48;7.68;;;;;;;22.11;67.79;101086.28;4991950;28;103910;-47
2022/06/30 09:49:49;;;;;;;8.35;7.63;;;;;;;22.10;67.67;101096.56;4993407;28;102476;-47
2022/06/30 09:52:20;;;;;;;9.88;7.70;;;;;;;22.08;67.89;101101.66;4992491;28;102105;-47
2022/06/30 09:54:54;;;;;;;10.65;8.27;;;;;;;22.04;68.21;101109.03;4987608;28;105961;-46
2022/06/30 09:57:22;;;;;;;9.43;8.52;;;;;;;22.00;68.76;101105.31;4992314;28;103827;-46
2022/06/30 09:59:58;;;;;;;9.13;8.23;;;;;;;21.99;68.24;101089.81;4993060;28;102116;-49
2022/06/30 10:02:30;;;;;;;9.00;8.10;;;;;;;21.98;68.55;101102.06;4992285;28;101968;-47
2022/06/30 10:04:59;;;;;;;9.27;7.72;;;;;;;21.97;68.75;101103.22;4995486;28;102513;-49
2022/06/30 10:07:27;;;;;;;8.52;7.72;;;;;;;21.95;68.92;101099.97;4993520;28;104016;-47
2022/06/30 10:09:54;;;;;;;11.55;7.72;;;;;;;21.96;69.19;101093.25;4992569;28;102502;-49
2022/06/30 10:12:23;;;;;;;16.73;8.02;;;;;;;21.93;69.53;101080.13;4990174;28;102337;-51
2022/06/30 10:14:51;;;;;;;14.55;7.97;;;;;;;21.92;69.68;101100.63;4996057;28;102146;-48
2022/06/30 10:17:21;;;;;;;11.57;7.28;;;;;;;21.90;69.63;101116.81;4995659;28;103865;-47
2022/06/30 10:19:49;;;;;;;9.32;7.10;;;;;;;21.88;69.60;101124.63;4995031;28;102725;-47
2022/06/30 10:22:17;;;;;;;;;;;;;;;21.86;69.40;101129.72;4996334;28;103574;-46
2022/06/30 10:24:45;;;;;;;9.18;7.35;;;;;;;21.84;69.55;101113.41;4996651;28;102439;-47
2022/06/30 10:27:13;;;;;;;11.00;7.97;;;;;;;21.82;69.61;101107.44;4996703;28;103979;-47
2022/06/30 10:29:42;;;;;;;8.55;7.32;;;;;;;21.80;69.63;101102.19;4997638;28;102289;-47
2022/06/30 10:32:19;;;;;;;8.15;7.35;;;;;;;21.77;69.80;101100.09;4995581;28;102067;-47
2022/06/30 10:34:56;;;;;;;8.80;7.88;;;;;;;21.77;69.92;101104.84;4997299;28;102372;-47
2022/06/30 10:37:31;;;;;;;9.02;8.05;;;;;;;21.76;69.92;101092.16;4995241;28;103873;-48
2022/06/30 10:40:02;;;;;;;9.70;7.65;;;;;;;21.72;70.14;101092.00;4995984;28;102234;-47
2022/06/30 10:42:48;;;;;;;9.25;7.47;;;;;;;21.69;70.28;101087.13;4996473;28;102233;-46
2022/06/30 10:45:48;;;;;;;9.68;7.80;;;;;;;21.66;70.46;101107.19;4996485;28;102039;-46
2022/06/30 10:48:15;;;;;;;9.27;8.23;;;;;;;21.63;70.58;101094.03;4978782;28;103816;-47
2022/06/30 10:50:43;;;;;;;9.75;8.30;;;;;;;21.63;70.71;101085.72;4988853;28;102161;-48
2022/06/30 10:53:17;;;;;;;9.40;8.05;;;;;;;21.61;70.67;101085.25;4993083;28;102077;-49
2022/06/30 10:55:53;;;;;;;9.25;8.07;;;;;;;21.59;70.77;101077.25;4995596;28;102728;-50
2022/06/30 10:58:22;;;;;;;8.77;7.97;;;;;;;21.58;70.74;101072.06;4995339;28;103940;-48
2022/06/30 11:00:58;;;;;;;8.98;7.97;;;;;;;21.57;70.86;101056.63;4997163;28;101973;-47
2022/06/30 11:04:01;;;;;;;9.85;7.55;;;;;;;21.57;70.66;101040.00;4995554;28;102191;-49
2022/06/30 11:06:57;;;;;;;9.13;7.65;;;;;;;21.58;70.66;101047.16;4997723;28;102735;-47
2022/06/30 11:10:03;;;;;;;8.75;7.85;;;;;;;21.56;70.67;101027.28;4992497;28;103875;-49
2022/06/30 11:13:00;;;;;;;8.60;7.70;;;;;;;21.55;70.79;101020.94;4996399;28;102165;-47
2022/06/30 11:15:54;;;;;;;8.85;8.05;;;;;;;21.53;70.76;101011.34;4978795;28;102085;-48
2022/06/30 11:18:22;;;;;;;10.50;7.93;;;;;;;21.53;70.67;101014.09;4985654;28;102968;-50
2022/06/30 11:20:50;;;;;;;8.90;8.05;;;;;;;21.51;71.07;101008.91;4994315;28;104077;-47
2022/06/30 11:23:21;;;;;;;8.67;7.87;;;;;;;21.51;70.89;101005.34;4996578;28;102301;-47
2022/06/30 11:28:42;;;;;;;8.77;7.90;;;;;;;21.50;70.95;101006.50;4994737;28;102295;-47
2022/06/30 11:31:23;;;;;;;8.85;7.95;;;;;;;21.50;71.06;101001.78;4992911;28;104051;-46
2022/06/30 11:33:51;;;;;;;11.50;8.48;;;;;;;21.49;71.15;100982.72;4993983;28;101980;-46
2022/06/30 11:36:18;;;;;;;8.90;8.10;;;;;;;21.51;70.99;100986.75;4994250;28;102247;-46
2022/06/30 11:38:52;;;;;;;9.63;7.80;;;;;;;21.50;71.01;100985.16;4997133;28;102224;-46
2022/06/30 11:44:08;;;;;;;9.52;8.63;;;;;;;21.49;70.99;100999.31;4989507;28;102322;-46